createdAt,value
2022-12-22T00:04:40.925Z,2.10
2022-12-22T00:10:02.463Z,1.50
2022-12-22T00:15:24.254Z,2.38
2022-12-22T00:20:45.039Z,2.03
2022-12-22T00:26:07.843Z,3.75
2022-12-22T00:31:28.544Z,4.03
2022-12-22T00:36:49.009Z,2.10
2022-12-22T00:42:10.827Z,6.60
2022-12-22T00:47:33.096Z,0.80
2022-12-22T00:52:54.894Z,0.98
2022-12-22T00:58:17.208Z,1.10
2022-12-22T01:41:18.921Z,1.42
2022-12-22T01:46:41.553Z,2.47
2022-12-22T01:52:03.707Z,1.70
2022-12-22T01:57:24.562Z,2.40
2022-12-22T02:02:46.430Z,3.10
2022-12-22T02:08:19.591Z,1.65
2022-12-22T02:13:48.458Z,1.42
2022-12-22T02:19:15.731Z,4.07
2022-12-22T02:24:50.658Z,3.50
2022-12-22T02:30:15.670Z,2.10
2022-12-22T02:35:35.981Z,4.03
2022-12-22T02:41:08.082Z,1.60
2022-12-22T02:46:38.418Z,4.68
2022-12-22T02:52:07.049Z,2.58
2022-12-22T02:57:27.753Z,1.23
2022-12-22T03:02:49.815Z,2.30
2022-12-22T03:08:10.120Z,2.40
2022-12-22T03:13:30.432Z,1.60
2022-12-22T03:18:51.998Z,5.18
2022-12-22T03:24:12.291Z,0.60
2022-12-22T03:29:15.214Z,0.57
2022-12-22T03:34:19.425Z,2.97
2022-12-22T03:39:22.304Z,0.85
2022-12-22T03:44:42.462Z,5.75
2022-12-22T03:49:46.612Z,1.30
2022-12-22T03:54:49.307Z,1.05
2022-12-22T03:59:52.144Z,1.88
2022-12-22T04:04:56.193Z,0.55
2022-12-22T04:10:16.815Z,3.58
2022-12-22T04:15:19.560Z,2.70
2022-12-22T04:20:26.748Z,0.65
2022-12-22T04:30:32.584Z,2.75
2022-12-22T04:35:36.760Z,0.50
2022-12-22T04:40:39.475Z,0.50
2022-12-22T04:45:42.251Z,3.08
2022-12-22T04:50:46.383Z,0.68
2022-12-22T04:55:50.395Z,1.00
2022-12-22T05:00:53.487Z,0.60
2022-12-22T05:05:57.760Z,0.77
2022-12-22T05:11:00.560Z,2.17
2022-12-22T05:16:08.305Z,8.82
2022-12-22T05:21:13.807Z,0.82
2022-12-22T05:26:17.832Z,1.05
2022-12-22T05:31:24.172Z,2.17
2022-12-22T05:36:28.388Z,1.53
2022-12-22T05:41:31.282Z,2.10
2022-12-22T05:46:34.080Z,4.03
2022-12-22T05:51:38.252Z,3.92
2022-12-22T05:56:41.067Z,1.08
2022-12-22T06:01:43.923Z,0.85
2022-12-22T06:06:48.186Z,2.88
2022-12-22T06:11:50.907Z,1.38
2022-12-22T06:16:53.688Z,0.60
2022-12-22T06:21:58.099Z,4.95
2022-12-22T06:27:01.207Z,2.38
2022-12-22T06:32:04.365Z,1.38
2022-12-22T06:37:08.644Z,1.38
2022-12-22T06:42:29.512Z,3.67
2022-12-22T06:47:32.386Z,0.73
2022-12-22T06:52:36.544Z,3.75
2022-12-22T06:57:39.318Z,1.58
2022-12-22T07:02:42.177Z,4.25
2022-12-22T07:07:47.137Z,2.47
2022-12-22T07:12:52.565Z,2.10
2022-12-22T07:17:56.125Z,11.75
2022-12-22T07:23:01.277Z,2.45
2022-12-22T07:28:04.722Z,5.88
2022-12-22T07:33:08.175Z,2.58
2022-12-22T07:38:17.135Z,5.70
2022-12-22T07:43:20.185Z,3.25
2022-12-22T07:48:40.544Z,1.70
2022-12-22T07:53:44.680Z,5.10
2022-12-22T07:58:49.887Z,2.10
2022-12-22T08:03:56.957Z,7.25
2022-12-22T08:09:01.213Z,6.88
2022-12-22T08:14:04.079Z,2.35
2022-12-22T08:19:07.830Z,9.63
2022-12-22T08:24:12.253Z,1.42
2022-12-22T08:29:20.855Z,4.38
2022-12-22T08:34:24.339Z,1.60
2022-12-22T08:39:33.705Z,1.67
2022-12-22T08:44:39.156Z,3.72
2022-12-22T08:49:42.187Z,7.88
2022-12-22T08:54:47.652Z,4.78
2022-12-22T08:59:52.209Z,4.95
2022-12-22T09:04:58.152Z,6.38
2022-12-22T09:10:03.261Z,2.75
2022-12-22T09:15:07.255Z,3.15
2022-12-22T09:20:11.231Z,3.95
2022-12-22T09:25:18.357Z,5.10
2022-12-22T09:30:21.410Z,4.05
2022-12-22T09:35:24.395Z,1.50
2022-12-22T09:40:28.714Z,6.57
2022-12-22T09:45:36.705Z,7.85
2022-12-22T09:50:41.176Z,17.80
2022-12-22T09:55:48.282Z,27.73
2022-12-22T10:00:55.242Z,6.32
2022-12-22T10:11:09.333Z,3.92
2022-12-22T10:21:24.275Z,8.60
2022-12-22T10:26:35.329Z,8.60
2022-12-22T10:31:58.366Z,2.60
2022-12-22T10:37:05.096Z,1.60
2022-12-22T10:42:14.600Z,2.40
2022-12-22T10:47:21.055Z,2.60
2022-12-22T10:52:30.444Z,3.20
2022-12-22T10:57:35.349Z,3.45
2022-12-22T11:02:40.342Z,5.95
2022-12-22T11:07:46.934Z,2.08
2022-12-22T11:13:11.208Z,3.97
2022-12-22T11:18:27.317Z,6.78
2022-12-22T11:23:37.786Z,7.53
2022-12-22T11:28:53.152Z,7.63
2022-12-22T11:34:15.887Z,10.02
2022-12-22T11:39:37.836Z,12.63
2022-12-22T11:44:53.699Z,10.40
2022-12-22T11:50:59.039Z,8.60
2022-12-22T11:55:38.467Z,7.57
2022-12-22T12:11:37.403Z,7.88
2022-12-22T12:16:47.197Z,8.77
2022-12-22T12:21:52.975Z,8.10
2022-12-22T12:27:04.207Z,10.45
2022-12-22T12:32:15.544Z,8.85
2022-12-22T12:37:26.569Z,7.95
2022-12-22T12:42:34.140Z,6.43
2022-12-22T12:53:08.628Z,12.23
2022-12-22T12:58:13.772Z,11.95
2022-12-22T13:09:49.122Z,13.77
2022-12-22T13:14:59.398Z,8.93
2022-12-22T13:20:03.856Z,8.68
2022-12-22T13:25:07.880Z,8.90
2022-12-22T13:30:15.327Z,8.95
2022-12-22T13:35:32.160Z,10.75
2022-12-22T13:40:42.438Z,10.90
2022-12-22T13:45:49.104Z,11.98
2022-12-22T13:50:55.426Z,12.60
2022-12-22T13:55:59.486Z,15.20
2022-12-22T14:01:05.332Z,13.50
2022-12-22T14:06:23.493Z,16.00
2022-12-22T14:11:26.297Z,15.30
2022-12-22T14:16:29.324Z,11.65
2022-12-22T14:22:06.081Z,11.80
2022-12-22T14:27:19.244Z,17.98
2022-12-22T14:32:47.888Z,18.38
2022-12-22T14:38:08.534Z,15.63
2022-12-22T14:43:25.806Z,24.85
2022-12-22T14:48:32.880Z,12.55
2022-12-22T14:53:44.840Z,16.45
2022-12-22T14:58:50.477Z,20.92
2022-12-22T15:04:04.185Z,26.30
2022-12-22T15:10:12.647Z,9.70
2022-12-22T15:14:52.158Z,21.38
2022-12-22T15:19:58.926Z,9.50
2022-12-22T15:25:03.500Z,8.88
2022-12-22T15:30:07.510Z,4.70
2022-12-22T15:35:19.855Z,23.20
2022-12-22T15:40:25.602Z,28.48
2022-12-22T15:45:30.849Z,19.77
2022-12-22T15:50:39.209Z,4.78
2022-12-22T15:55:45.612Z,5.05
2022-12-22T16:05:52.814Z,3.05
2022-12-22T16:10:57.082Z,34.35
2022-12-22T16:16:00.518Z,13.20
2022-12-22T16:21:08.006Z,16.35
2022-12-22T16:26:17.444Z,3.58
2022-12-22T16:31:23.441Z,1.25
2022-12-22T16:36:26.363Z,4.80
2022-12-22T16:41:30.545Z,4.72
2022-12-22T16:46:37.688Z,2.22
2022-12-22T16:51:48.108Z,3.67
2022-12-22T16:56:52.488Z,2.83
2022-12-22T17:01:57.762Z,1.80
2022-12-22T17:07:03.160Z,1.70
2022-12-22T17:12:07.836Z,1.52
2022-12-22T17:17:15.883Z,7.00
2022-12-22T17:22:24.475Z,6.20
2022-12-22T17:27:31.140Z,11.73
2022-12-22T17:32:34.062Z,6.10
2022-12-22T17:37:36.846Z,3.95
2022-12-22T17:42:41.418Z,5.53
2022-12-22T17:47:44.474Z,8.77
2022-12-22T17:52:48.332Z,6.95
2022-12-22T17:57:53.176Z,10.73
2022-12-22T18:02:56.730Z,13.13
2022-12-22T18:08:01.444Z,14.10
2022-12-22T18:13:12.565Z,7.00
2022-12-22T18:18:17.263Z,11.70
2022-12-22T18:23:26.574Z,7.50
2022-12-22T18:28:30.616Z,8.88
2022-12-22T18:33:34.460Z,9.02
2022-12-22T18:38:37.412Z,12.52
2022-12-22T18:43:41.891Z,33.08
2022-12-22T18:48:44.904Z,23.08
2022-12-22T18:53:48.397Z,44.00
2022-12-22T18:58:52.529Z,8.13
2022-12-22T19:03:56.947Z,13.20
2022-12-22T19:08:59.682Z,13.60
2022-12-22T19:14:03.809Z,12.95
2022-12-22T19:19:06.684Z,20.65
2022-12-22T19:24:09.570Z,15.70
2022-12-22T19:29:15.472Z,21.30
2022-12-22T19:34:21.402Z,16.60
2022-12-22T19:39:24.196Z,19.95
2022-12-22T19:44:30.602Z,23.85
2022-12-22T19:49:34.278Z,33.20
2022-12-22T19:54:38.655Z,35.20
2022-12-22T19:59:45.365Z,31.85
2022-12-22T20:04:48.531Z,29.27
2022-12-22T20:09:51.777Z,26.73
2022-12-22T20:14:56.020Z,41.35
2022-12-22T20:19:58.797Z,33.17
2022-12-22T20:25:01.667Z,34.55
2022-12-22T20:30:06.534Z,35.63
2022-12-22T20:35:09.445Z,49.78
2022-12-22T20:40:23.795Z,29.55
2022-12-22T20:45:31.873Z,35.03
2022-12-22T20:50:35.669Z,40.88
2022-12-22T20:55:38.503Z,23.73
2022-12-22T21:00:43.327Z,30.40
2022-12-22T21:05:47.671Z,43.22
2022-12-22T21:10:53.032Z,26.92
2022-12-22T21:15:57.214Z,24.13
2022-12-22T21:20:59.995Z,25.67
2022-12-22T21:26:03.001Z,31.70
2022-12-22T21:31:07.425Z,27.00
2022-12-22T21:36:18.412Z,22.15
2022-12-22T21:41:41.641Z,21.77
2022-12-22T21:46:47.862Z,19.33
2022-12-22T21:51:52.524Z,27.87
2022-12-22T21:56:55.897Z,18.67
2022-12-22T22:02:00.388Z,21.45
2022-12-22T22:07:03.365Z,19.10
2022-12-22T22:12:28.238Z,19.02
2022-12-22T22:17:32.763Z,16.67
2022-12-22T22:22:35.605Z,13.32
2022-12-22T22:27:41.795Z,15.00
2022-12-22T22:32:50.384Z,9.68
2022-12-22T22:37:53.274Z,11.23
2022-12-22T22:42:56.847Z,15.82
2022-12-22T22:48:04.933Z,15.95
2022-12-22T22:53:10.506Z,17.17
2022-12-22T22:58:13.248Z,18.15
2022-12-22T23:03:17.639Z,8.85
2022-12-22T23:08:20.528Z,17.15
2022-12-22T23:13:23.514Z,12.55
2022-12-22T23:18:28.516Z,11.38
2022-12-22T23:23:33.067Z,13.35
2022-12-22T23:28:35.888Z,10.77
2022-12-22T23:33:40.125Z,11.75
2022-12-22T23:38:42.938Z,12.68
2022-12-22T23:43:45.777Z,14.20
2022-12-22T23:48:53.236Z,18.15
2022-12-22T23:53:57.139Z,10.05
2022-12-22T23:59:00.165Z,8.05
